Latest Weather Observations for Richmond

IDQ60801

Issued at 3:42 pm EST Wednesday 20 June 2018 (issued every 10 minutes, with the page automatically refreshed every 10 minutes)

About weather observations | Map of weather stations | Latest weather observations for QLD | Other Formats
Station Details ID: 030161 Name: RICHMOND AIRPORT Lat: -20.70 Lon: 143.12 Height: 206.3 m
Data from the previous 72 hours. | See also: Recent months at Richmond
Date/Time
EST
Temp
°C
App
Temp
°C
Dew
Point
°C
Rel
Hum
%
Delta-T
°C
Wind Press
QNH
hPa
Press
MSL
hPa
Rain since
9am
mm
Dir  Spd
km/h
Gust
km/h
Spd
kts
Gust
kts
20/03:30pm 26.2 21.9 -9.1 9 14.0 SSW 7 13 4 7 1017.7 1017.2 0.0
20/03:00pm 26.6 22.0 -7.5 10 14.0 SE 9 15 5 8 1017.8 1017.3 0.0
20/02:30pm 25.9 21.8 -6.8 11 13.5 SSW 7 13 4 7 1018.0 1017.5 0.0
20/02:00pm 26.0 21.5 -6.7 11 13.5 SE 9 15 5 8 1018.1 1017.6 0.0
20/01:30pm 25.0 20.4 -7.5 11 13.1 E 9 13 5 7 1018.5 1018.0 0.0
20/01:00pm 25.1 20.3 -6.3 12 13.0 ESE 11 22 6 12 1018.7 1018.2 0.0
20/12:30pm 23.7 18.5 -6.3 13 12.2 E 13 20 7 11 1019.4 1019.0 0.0
20/12:00pm 22.7 16.8 -6.1 14 11.7 ENE 17 24 9 13 1019.8 1019.3 0.0
20/11:30am 21.7 15.4 -6.0 15 11.2 E 19 32 10 17 1020.1 1019.6 0.0
20/11:00am 20.6 13.6 -6.9 15 10.7 E 22 32 12 17 1020.6 1020.1 0.0
20/10:30am 19.6 12.7 -6.1 17 10.1 ENE 22 32 12 17 1021.0 1020.5 0.0
20/10:03am 18.5 10.5 -6.2 18 9.6 ENE 28 46 15 25 1021.0 1020.5 0.0
20/10:00am 18.4 11.2 -5.6 19 9.4 ENE 24 39 13 21 1021.1 1020.6 0.0
20/09:30am 16.4 10.5 -5.3 22 8.4 E 17 24 9 13 1021.3 1020.8 0.0
20/09:00am 13.4 7.5 -5.7 26 7.0 ESE 17 24 9 13 1021.2 1020.7 0.0
20/08:30am 11.1 5.1 -6.2 29 6.2 E 17 24 9 13 1021.1 1020.6 0.0
20/08:00am 8.7 3.5 -6.3 34 5.1 ESE 13 20 7 11 1021.1 1020.6 0.0
20/07:30am 4.3 -0.5 -6.0 47 3.4 SE 11 13 6 7 1021.0 1020.5 0.0
20/07:00am 3.3 -2.6 -6.1 50 3.0 ESE 17 19 9 10 1020.8 1020.3 0.0
20/06:30am 2.8 -2.8 -6.1 52 3.0 ESE 15 17 8 9 1020.9 1020.4 0.0
20/06:00am 3.7 -1.9 -6.3 48 3.2 ESE 15 17 8 9 1020.7 1020.2 0.0
20/05:30am 4.2 -1.0 -6.4 46 3.4 ESE 13 15 7 8 1020.8 1020.3 0.0
20/05:00am 4.5 -0.7 -5.8 47 3.4 ESE 13 15 7 8 1020.5 1020.0 0.0
20/04:30am 4.6 -0.6 -6.3 45 3.6 ESE 13 15 7 8 1020.6 1020.1 0.0
20/04:00am 5.4 0.2 -6.2 43 3.8 ESE 13 15 7 8 1020.7 1020.2 0.0
20/03:30am 7.0 1.0 -6.3 38 4.5 ESE 17 19 9 10 1020.6 1020.1 0.0
20/03:00am 7.4 1.8 -6.3 37 4.6 ESE 15 19 8 10 1020.8 1020.3 0.0
20/02:30am 7.4 1.5 -6.0 38 4.6 ESE 17 19 9 10 1020.9 1020.4 0.0
20/02:00am 7.3 1.3 -6.8 36 4.7 ESE 17 20 9 11 1021.1 1020.6 0.0
20/01:30am 8.2 2.2 -6.7 34 5.1 ESE 17 19 9 10 1021.2 1020.7 0.0
20/01:00am 8.3 2.3 -7.0 33 5.1 ESE 17 20 9 11 1021.3 1020.8 0.0
20/12:30am 8.9 2.5 -6.9 32 5.4 ESE 19 22 10 12 1021.5 1021.0 0.0
20/12:00am 9.3 3.3 -6.5 32 5.4 ESE 17 20 9 11 1021.5 1021.0 0.0
 
Date/Time
EST
Temp
°C
App
Temp
°C
Dew
Point
°C
Rel
Hum
%
Delta-T
°C
Wind Press
QNH
hPa
Press
MSL
hPa
Rain since
9am
mm
Dir  Spd
km/h
Gust
km/h
Spd
kts
Gust
kts
19/11:30pm 8.6 3.0 -6.7 33 5.2 ESE 15 19 8 10 1021.6 1021.1 0.0
19/11:00pm 10.1 4.5 -6.7 30 5.8 ESE 15 19 8 10 1021.5 1021.0 0.0
19/10:30pm 11.6 5.1 -6.3 28 6.4 SE 20 24 11 13 1021.3 1020.8 0.0
19/10:00pm 10.3 4.7 -6.5 30 5.9 SE 15 19 8 10 1021.4 1020.9 0.0
19/09:30pm 12.0 5.5 -5.9 28 6.5 SE 20 24 11 13 1021.1 1020.6 0.0
19/09:00pm 12.3 5.9 -6.6 26 6.7 SE 19 24 10 13 1021.1 1020.6 0.0
19/08:30pm 12.7 6.1 -6.8 25 7.0 SE 20 28 11 15 1021.0 1020.5 0.0
19/08:00pm 13.4 6.9 -7.9 22 7.5 SE 19 22 10 12 1020.9 1020.4 0.0
19/07:30pm 13.0 6.6 -7.1 24 7.2 SE 19 20 10 11 1020.6 1020.1 0.0
19/07:00pm 14.5 9.2 -7.5 21 7.9 SE 13 17 7 9 1020.3 1019.8 0.0
19/06:30pm 16.6 10.6 -7.1 19 8.8 SE 17 24 9 13 1019.7 1019.2 0.0
19/06:00pm 17.2 10.8 -7.3 18 9.1 SE 19 19 10 10 1019.3 1018.9 0.0
19/05:30pm 20.7 14.1 -6.8 15 10.8 SE 20 30 11 16 1019.3 1018.9 0.0
19/05:00pm 21.5 13.8 -6.2 15 11.1 ESE 26 33 14 18 1019.1 1018.6 0.0
19/04:30pm 22.2 14.9 -6.5 14 11.5 ESE 24 35 13 19 1019.1 1018.6 0.0
19/04:00pm 22.7 14.8 -5.2 15 11.5 ESE 28 37 15 20 1019.1 1018.6 0.0
19/03:30pm 22.6 14.6 -5.3 15 11.5 SE 28 35 15 19 1019.2 1018.7 0.0
19/03:00pm 22.4 13.7 -5.5 15 11.4 SE 32 41 17 22 1019.3 1018.9 0.0
19/02:30pm 22.1 13.8 -4.9 16 11.1 ESE 30 39 16 21 1019.6 1019.1 0.0
19/02:00pm 21.8 13.1 -5.1 16 11.0 ESE 32 41 17 22 1019.9 1019.4 0.0
19/01:30pm 21.3 13.5 -4.0 18 10.6 ESE 28 39 15 21 1020.3 1019.8 0.0
19/01:00pm 21.0 13.2 -3.5 19 10.3 ESE 28 37 15 20 1020.9 1020.4 0.0
19/12:30pm 20.1 12.3 -3.5 20 9.8 ESE 28 33 15 18 1021.6 1021.1 0.0
19/12:00pm 18.8 11.0 -4.0 21 9.2 ESE 28 39 15 21 1022.2 1021.7 0.0
19/11:30am 18.4 10.8 -2.5 24 8.7 ESE 28 37 15 20 1022.5 1022.0 0.0
19/11:00am 17.0 9.0 -2.6 26 8.0 ESE 30 39 16 21 1022.7 1022.2 0.0
19/10:30am 15.4 6.9 -3.0 28 7.4 ESE 32 41 17 22 1023.0 1022.5 0.0
19/10:00am 14.0 5.9 -2.8 31 6.6 ESE 30 43 16 23 1023.3 1022.8 0.0
19/09:30am 12.9 5.2 -3.0 33 6.2 ESE 28 35 15 19 1023.4 1022.9 0.0
19/09:00am 11.1 4.6 -2.7 38 5.3 ESE 22 32 12 17 1023.3 1022.8 0.0
19/08:30am 8.5 2.9 -3.0 44 4.3 ESE 17 22 9 12 1023.2 1022.7 0.0
19/08:00am 6.6 1.3 -3.3 49 3.6 SE 15 19 8 10 1023.1 1022.6 0.0
19/07:30am 3.8 -1.1 -3.2 60 2.4 ESE 13 15 7 8 1023.2 1022.7 0.0
19/07:00am 2.3 -2.7 -4.4 61 2.2 SE 13 17 7 9 1023.0 1022.5 0.0
19/06:30am 2.3 -2.7 -4.2 62 2.2 SE 13 15 7 8 1022.9 1022.4 0.0
19/06:00am 2.4 -2.6 -4.6 60 2.3 ESE 13 13 7 7 1022.7 1022.2 0.0
19/05:30am 3.8 -1.6 -4.2 56 2.7 ESE 15 17 8 9 1022.3 1021.8 0.0
19/05:00am 4.1 -1.3 -4.1 55 2.8 ESE 15 17 8 9 1022.3 1021.8 0.0
19/04:30am 4.3 -0.7 -4.4 53 3.0 SE 13 17 7 9 1022.2 1021.7 0.0
19/04:00am 4.9 -0.5 -4.6 50 3.2 ESE 15 17 8 9 1022.0 1021.5 0.0
19/03:30am 7.1 1.0 -4.3 44 4.0 ESE 19 24 10 13 1021.9 1021.4 0.0
19/03:00am 7.6 1.3 -4.2 43 4.2 ESE 20 26 11 14 1022.0 1021.5 0.0
19/02:30am 8.2 1.5 -3.9 42 4.4 ESE 22 30 12 16 1022.1 1021.6 0.0
19/02:00am 8.2 2.1 -4.2 41 4.4 ESE 19 24 10 13 1022.4 1021.9 0.0
19/01:30am 8.9 2.2 -4.3 39 4.8 ESE 22 28 12 15 1022.5 1022.0 0.0
19/01:00am 9.4 3.3 -3.8 39 4.9 ESE 19 24 10 13 1022.6 1022.1 0.0
19/12:30am 10.1 3.8 -4.3 36 5.3 ESE 20 28 11 15 1022.6 1022.1 0.0
19/12:00am 10.4 4.1 -4.4 35 5.4 SE 20 28 11 15 1022.5 1022.0 0.0
 
Date/Time
EST
Temp
°C
App
Temp
°C
Dew
Point
°C
Rel
Hum
%
Delta-T
°C
Wind Press
QNH
hPa
Press
MSL
hPa
Rain since
9am
mm
Dir  Spd
km/h
Gust
km/h
Spd
kts
Gust
kts
18/11:30pm 10.9 3.0 -4.7 33 5.7 SE 28 33 15 18 1022.5 1022.0 0.0
18/11:00pm 11.7 3.5 -4.4 32 6.0 SE 30 35 16 19 1022.5 1022.0 0.0
18/10:30pm 11.8 3.9 -4.8 31 6.2 SE 28 33 15 18 1022.7 1022.2 0.0
18/10:00pm 13.1 5.6 -4.5 29 6.6 SE 26 33 14 18 1022.7 1022.2 0.0
18/09:30pm 10.5 4.1 -4.7 34 5.6 SE 20 22 11 12 1022.9 1022.4 0.0
18/09:00pm 10.5 4.7 -5.1 33 5.6 SE 17 20 9 11 1023.0 1022.5 0.0
18/08:30pm 11.4 5.2 -4.7 32 6.0 SE 19 24 10 13 1022.8 1022.3 0.0
18/08:00pm 11.7 5.5 -4.8 31 6.1 SE 19 20 10 11 1022.5 1022.0 0.0
18/07:30pm 11.9 5.7 -5.1 30 6.3 SE 19 20 10 11 1022.1 1021.6 0.0
18/07:00pm 13.0 7.1 -5.5 27 6.8 SE 17 22 9 12 1021.7 1021.2 0.0
18/06:30pm 14.5 8.6 -5.3 25 7.5 SE 17 20 9 11 1021.3 1020.8 0.0
18/06:00pm 16.2 9.9 -5.5 22 8.3 SE 19 24 10 13 1021.0 1020.5 0.0
18/05:30pm 17.8 9.5 -5.4 20 9.1 SE 30 37 16 20 1020.7 1020.2 0.0
18/05:00pm 19.0 10.3 -5.1 19 9.6 SE 32 41 17 22 1020.4 1019.9 0.0
18/04:30pm 19.5 11.2 -4.7 19 9.8 SE 30 41 16 22 1020.1 1019.6 0.0
18/04:00pm 20.4 12.5 -4.7 18 10.2 SE 28 37 15 20 1020.1 1019.6 0.0
18/03:30pm 20.4 12.2 -4.0 19 10.1 SE 30 41 16 22 1020.1 1019.6 0.0
18/03:00pm 20.3 12.2 -3.4 20 9.9 SE 30 41 16 22 1020.3 1019.8 0.0
18/02:30pm 20.7 12.5 -3.7 19 10.2 SE 30 43 16 23 1020.5 1020.0 0.0
18/02:00pm 20.3 12.3 -2.7 21 9.7 SE 30 39 16 21 1020.8 1020.3 0.0
18/01:30pm 19.3 10.8 -3.5 21 9.4 ESE 32 43 17 23 1021.2 1020.7 0.0
18/01:00pm 19.5 11.1 -2.2 23 9.2 SE 32 43 17 23 1021.9 1021.4 0.0
18/12:30pm 19.0 10.7 -1.4 25 8.8 SE 32 43 17 23 1022.5 1022.0 0.0
18/12:00pm 18.1 9.7 -2.2 25 8.5 ESE 32 43 17 23 1023.1 1022.6 0.0
18/11:30am 16.9 7.6 -2.2 27 7.9 SE 37 46 20 25 1023.4 1022.9 0.0
18/11:00am 16.2 6.8 -2.8 27 7.7 ESE 37 48 20 26 1023.9 1023.5 0.0
18/10:30am 16.0 6.6 -2.5 28 7.6 ESE 37 48 20 26 1024.1 1023.7 0.0
18/10:00am 15.0 6.5 -2.0 31 6.9 ESE 33 44 18 24 1024.1 1023.7 0.0
18/09:48am 14.3 5.9 -2.6 31 6.8 ESE 32 50 17 27 1024.2 1023.8 0.0
18/09:30am 13.2 4.2 -2.7 33 6.3 ESE 35 44 19 24 1024.2 1023.8 0.0
18/09:00am 11.8 3.9 -1.7 39 5.3 ESE 30 39 16 21 1024.2 1023.8 0.0
18/08:30am 9.9 3.6 -0.9 47 4.3 SE 22 32 12 17 1024.0 1023.6 0.0
18/08:00am 7.6 2.6 -1.1 54 3.3 ESE 15 19 8 10 1023.9 1023.5 0.0
18/07:30am 5.3 0.3 -1.4 62 2.5 ESE 15 17 8 9 1023.6 1023.2 0.0
18/07:00am 4.8 -1.0 -1.8 62 2.4 SE 19 20 10 11 1023.5 1023.1 0.0
18/06:30am 5.7 0.4 -0.8 63 2.5 SE 17 20 9 11 1023.2 1022.7 0.0
18/06:00am 3.7 -1.0 -1.6 68 1.9 SE 13 17 7 9 1023.1 1022.6 0.0
18/05:30am 4.1 -0.3 -2.1 64 2.2 ESE 11 13 6 7 1023.0 1022.5 0.0
18/05:00am 6.2 1.2 -1.2 59 2.8 ESE 15 17 8 9 1022.8 1022.3 0.0
18/04:30am 7.0 1.7 -0.9 57 3.0 SE 17 19 9 10 1022.8 1022.3 0.0
18/04:00am 7.6 1.9 -0.8 55 3.3 SE 19 24 10 13 1022.8 1022.3 0.0
18/03:30am 8.3 2.5 -0.4 54 3.4 SE 20 26 11 14 1022.9 1022.4 0.0
18/03:00am 8.6 2.9 -0.7 52 3.6 SSE 19 24 10 13 1022.9 1022.4 0.0
18/02:30am 9.6 3.4 -0.3 50 4.0 SE 22 28 12 15 1022.8 1022.3 0.0
18/02:00am 8.4 2.7 -0.9 52 3.6 SSE 19 20 10 11 1022.8 1022.3 0.0
18/01:30am 10.4 4.7 -0.7 46 4.5 SE 19 28 10 15 1022.8 1022.3 0.0
18/01:00am 10.5 5.1 -1.5 43 4.7 SSE 17 20 9 11 1023.0 1022.5 0.0
18/12:30am 12.1 6.1 -1.4 39 5.4 SE 20 26 11 14 1023.0 1022.5 0.0
18/12:00am 12.8 6.1 -1.1 38 5.6 SE 24 28 13 15 1023.0 1022.5 0.0
 
Date/Time
EST
Temp
°C
App
Temp
°C
Dew
Point
°C
Rel
Hum
%
Delta-T
°C
Wind Press
QNH
hPa
Press
MSL
hPa
Rain since
9am
mm
Dir  Spd
km/h
Gust
km/h
Spd
kts
Gust
kts
17/11:30pm 13.2 6.9 -0.8 38 5.8 SE 22 26 12 14 1023.2 1022.7 0.0
17/11:00pm 12.8 7.1 -0.4 40 5.4 SE 19 24 10 13 1023.5 1023.1 0.0
17/10:30pm 12.8 7.0 -0.1 41 5.4 SE 20 26 11 14 1023.5 1023.1 0.0
17/10:00pm 12.0 6.7 -0.5 42 5.1 SE 17 22 9 12 1023.4 1022.9 0.0
17/09:30pm 12.9 7.1 -0.4 40 5.5 SE 20 24 11 13 1023.4 1022.9 0.0
17/09:00pm 12.4 6.7 -1.1 39 5.5 SSE 19 20 10 11 1023.2 1022.7 0.0
17/08:30pm 13.0 7.7 -0.6 39 5.6 SSE 17 20 9 11 1022.7 1022.2 0.0
17/08:00pm 13.9 8.6 -0.5 37 6.0 SSE 17 20 9 11 1022.7 1022.2 0.0
17/07:30pm 15.1 9.5 -0.2 35 6.5 SSE 19 22 10 12 1022.5 1022.0 0.0
17/07:00pm 16.0 9.9 0.2 34 6.8 SSE 22 26 12 14 1022.2 1021.7 0.0
17/06:30pm 16.9 10.8 0.1 32 7.3 SSE 22 30 12 16 1021.7 1021.2 0.0
17/06:00pm 18.2 11.4 0.8 31 7.7 SSE 26 32 14 17 1021.4 1020.9 0.0
17/05:30pm 19.8 14.0 -0.2 26 8.9 SE 20 26 11 14 1020.9 1020.4 0.0
17/05:00pm 20.0 13.8 -0.6 25 9.1 SSE 22 30 12 16 1020.6 1020.1 0.0
17/04:30pm 20.5 13.9 -0.7 24 9.4 SSE 24 32 13 17 1020.4 1019.9 0.0
17/04:00pm 21.2 14.6 -0.1 24 9.6 SSE 24 35 13 19 1020.2 1019.7 0.0

Other Formats:

Comma delimited format used in spreadsheet applications
http://www.bom.gov.au/fwo/IDQ60801/IDQ60801.94341.axf

JavaScript Object Notation format (JSON) in row-major order
http://www.bom.gov.au/fwo/IDQ60801/IDQ60801.94341.json